sensor_id;sensor_type;location;lat;lon;timestamp;pressure;altitude;pressure_sealevel;temperature;humidity
25510;BME280;13413;52.336;21.200;2023-06-10T00:02:48;100453.52;;;22.15;45.93
25510;BME280;13413;52.336;21.200;2023-06-10T00:05:42;100455.31;;;22.11;45.96
25510;BME280;13413;52.336;21.200;2023-06-10T00:08:36;100459.71;;;22.08;45.93
25510;BME280;13413;52.336;21.200;2023-06-10T00:11:30;100458.88;;;22.03;45.78
25510;BME280;13413;52.336;21.200;2023-06-10T00:14:24;100458.80;;;21.95;45.52
25510;BME280;13413;52.336;21.200;2023-06-10T00:17:18;100457.88;;;21.85;45.57
25510;BME280;13413;52.336;21.200;2023-06-10T00:20:13;100461.46;;;21.83;45.66
25510;BME280;13413;52.336;21.200;2023-06-10T00:23:07;100459.62;;;21.83;45.61
25510;BME280;13413;52.336;21.200;2023-06-10T00:26:01;100457.42;;;21.74;45.47
25510;BME280;13413;52.336;21.200;2023-06-10T00:28:55;100454.91;;;21.65;45.16
25510;BME280;13413;52.336;21.200;2023-06-10T00:31:49;100455.14;;;21.58;45.25
25510;BME280;13413;52.336;21.200;2023-06-10T00:40:17;100460.11;;;21.47;44.82
25510;BME280;13413;52.336;21.200;2023-06-10T00:43:11;100458.83;;;21.44;44.78
25510;BME280;13413;52.336;21.200;2023-06-10T00:46:05;100459.52;;;21.40;44.51
25510;BME280;13413;52.336;21.200;2023-06-10T00:48:59;100461.76;;;21.39;44.68
25510;BME280;13413;52.336;21.200;2023-06-10T00:51:54;100462.02;;;21.38;44.47
25510;BME280;13413;52.336;21.200;2023-06-10T00:54:47;100463.71;;;21.37;44.42
25510;BME280;13413;52.336;21.200;2023-06-10T00:57:44;100472.00;;;21.32;44.35
25510;BME280;13413;52.336;21.200;2023-06-10T01:00:38;100473.23;;;21.28;44.27
25510;BME280;13413;52.336;21.200;2023-06-10T01:03:32;100475.73;;;21.24;44.30
25510;BME280;13413;52.336;21.200;2023-06-10T01:06:30;100468.52;;;21.21;44.33
25510;BME280;13413;52.336;21.200;2023-06-10T01:09:37;100466.83;;;21.12;44.18
25510;BME280;13413;52.336;21.200;2023-06-10T01:12:43;100467.84;;;21.04;44.31
25510;BME280;13413;52.336;21.200;2023-06-10T01:15:39;100469.52;;;20.97;44.34
25510;BME280;13413;52.336;21.200;2023-06-10T01:18:33;100471.58;;;20.94;44.37
25510;BME280;13413;52.336;21.200;2023-06-10T01:21:27;100471.80;;;20.89;44.24
25510;BME280;13413;52.336;21.200;2023-06-10T01:24:21;100467.52;;;20.80;44.16
25510;BME280;13413;52.336;21.200;2023-06-10T01:27:17;100470.41;;;20.73;44.29
25510;BME280;13413;52.336;21.200;2023-06-10T01:30:18;100471.66;;;20.65;44.27
25510;BME280;13413;52.336;21.200;2023-06-10T01:33:14;100472.40;;;20.57;44.18
25510;BME280;13413;52.336;21.200;2023-06-10T01:36:11;100474.30;;;20.49;44.31
25510;BME280;13413;52.336;21.200;2023-06-10T01:39:07;100473.36;;;20.42;44.45
25510;BME280;13413;52.336;21.200;2023-06-10T01:42:01;100477.75;;;20.38;44.50
25510;BME280;13413;52.336;21.200;2023-06-10T01:44:56;100478.15;;;20.33;44.43
25510;BME280;13413;52.336;21.200;2023-06-10T01:47:50;100479.60;;;20.27;44.49
25510;BME280;13413;52.336;21.200;2023-06-10T01:50:44;100475.45;;;20.24;44.70
25510;BME280;13413;52.336;21.200;2023-06-10T01:53:38;100481.39;;;20.23;44.67
25510;BME280;13413;52.336;21.200;2023-06-10T01:56:32;100483.55;;;20.16;44.77
25510;BME280;13413;52.336;21.200;2023-06-10T01:59:26;100482.74;;;20.14;44.93
25510;BME280;13413;52.336;21.200;2023-06-10T02:02:20;100487.87;;;20.11;45.10
25510;BME280;13413;52.336;21.200;2023-06-10T02:05:14;100494.23;;;20.07;45.10
25510;BME280;13413;52.336;21.200;2023-06-10T02:08:08;100490.83;;;20.00;45.14
25510;BME280;13413;52.336;21.200;2023-06-10T02:13:55;100490.92;;;19.91;45.53
25510;BME280;13413;52.336;21.200;2023-06-10T02:16:50;100490.85;;;19.87;45.67
25510;BME280;13413;52.336;21.200;2023-06-10T02:19:44;100491.62;;;19.85;45.89
25510;BME280;13413;52.336;21.200;2023-06-10T02:22:38;100498.99;;;19.83;46.07
25510;BME280;13413;52.336;21.200;2023-06-10T02:25:32;100499.15;;;19.79;46.13
25510;BME280;13413;52.336;21.200;2023-06-10T02:28:26;100501.67;;;19.75;46.35
25510;BME280;13413;52.336;21.200;2023-06-10T02:31:20;100504.33;;;19.75;46.41
25510;BME280;13413;52.336;21.200;2023-06-10T02:34:14;100508.14;;;19.77;46.50
25510;BME280;13413;52.336;21.200;2023-06-10T02:37:08;100510.09;;;19.73;46.68
25510;BME280;13413;52.336;21.200;2023-06-10T02:40:02;100508.83;;;19.68;46.80
25510;BME280;13413;52.336;21.200;2023-06-10T02:42:56;100513.40;;;19.66;47.02
25510;BME280;13413;52.336;21.200;2023-06-10T02:45:50;100514.75;;;19.64;47.12
25510;BME280;13413;52.336;21.200;2023-06-10T02:48:45;100517.92;;;19.63;47.29
25510;BME280;13413;52.336;21.200;2023-06-10T02:51:37;100521.20;;;19.64;47.32
25510;BME280;13413;52.336;21.200;2023-06-10T03:00:06;100523.23;;;19.60;47.66
25510;BME280;13413;52.336;21.200;2023-06-10T03:03:01;100524.98;;;19.61;47.75
25510;BME280;13413;52.336;21.200;2023-06-10T03:05:54;100526.69;;;19.61;47.86
25510;BME280;13413;52.336;21.200;2023-06-10T03:08:48;100530.49;;;19.58;47.93
25510;BME280;13413;52.336;21.200;2023-06-10T03:11:42;100524.33;;;19.57;47.99
25510;BME280;13413;52.336;21.200;2023-06-10T03:14:36;100521.95;;;19.57;48.19
25510;BME280;13413;52.336;21.200;2023-06-10T03:17:30;100519.58;;;19.57;48.19
25510;BME280;13413;52.336;21.200;2023-06-10T03:20:24;100522.45;;;19.59;48.27
25510;BME280;13413;52.336;21.200;2023-06-10T03:23:18;100524.83;;;19.64;48.24
25510;BME280;13413;52.336;21.200;2023-06-10T03:26:13;100532.61;;;19.68;48.41
25510;BME280;13413;52.336;21.200;2023-06-10T03:29:07;100533.27;;;19.66;48.48
25510;BME280;13413;52.336;21.200;2023-06-10T03:32:01;100531.22;;;19.70;48.53
25510;BME280;13413;52.336;21.200;2023-06-10T03:34:55;100536.52;;;19.73;48.56
25510;BME280;13413;52.336;21.200;2023-06-10T03:37:49;100539.80;;;19.75;48.61
25510;BME280;13413;52.336;21.200;2023-06-10T03:40:43;100539.85;;;19.77;48.70
25510;BME280;13413;52.336;21.200;2023-06-10T03:43:38;100542.45;;;19.75;48.70
25510;BME280;13413;52.336;21.200;2023-06-10T03:46:31;100544.23;;;19.75;48.84
25510;BME280;13413;52.336;21.200;2023-06-10T03:49:24;100547.46;;;19.80;48.82
25510;BME280;13413;52.336;21.200;2023-06-10T03:52:19;100552.58;;;19.84;48.89
25510;BME280;13413;52.336;21.200;2023-06-10T03:55:12;100551.52;;;19.91;48.78
25510;BME280;13413;52.336;21.200;2023-06-10T03:58:06;100551.43;;;19.93;48.84
25510;BME280;13413;52.336;21.200;2023-06-10T04:01:00;100557.08;;;19.96;48.76
25510;BME280;13413;52.336;21.200;2023-06-10T04:03:54;100557.41;;;20.02;48.86
25510;BME280;13413;52.336;21.200;2023-06-10T04:06:48;100556.22;;;20.00;48.85
25510;BME280;13413;52.336;21.200;2023-06-10T04:09:42;100554.66;;;20.03;48.86
25510;BME280;13413;52.336;21.200;2023-06-10T04:12:37;100556.51;;;20.12;48.93
25510;BME280;13413;52.336;21.200;2023-06-10T04:15:31;100558.62;;;20.15;48.82
25510;BME280;13413;52.336;21.200;2023-06-10T04:21:17;100556.77;;;20.26;48.79
25510;BME280;13413;52.336;21.200;2023-06-10T04:24:11;100561.30;;;20.34;48.65
25510;BME280;13413;52.336;21.200;2023-06-10T04:27:06;100564.33;;;20.46;48.72
25510;BME280;13413;52.336;21.200;2023-06-10T04:30:00;100569.10;;;20.54;48.63
25510;BME280;13413;52.336;21.200;2023-06-10T04:32:54;100563.30;;;20.65;48.56
25510;BME280;13413;52.336;21.200;2023-06-10T04:35:49;100565.55;;;20.73;48.48
25510;BME280;13413;52.336;21.200;2023-06-10T04:38:43;100573.42;;;20.82;48.41
25510;BME280;13413;52.336;21.200;2023-06-10T04:41:37;100567.47;;;20.86;48.17
25510;BME280;13413;52.336;21.200;2023-06-10T04:44:31;100571.36;;;20.88;48.15
25510;BME280;13413;52.336;21.200;2023-06-10T04:47:25;100572.91;;;20.91;48.17
25510;BME280;13413;52.336;21.200;2023-06-10T04:50:19;100574.71;;;20.94;48.20
25510;BME280;13413;52.336;21.200;2023-06-10T04:53:13;100572.81;;;21.01;48.27
25510;BME280;13413;52.336;21.200;2023-06-10T04:56:08;100573.65;;;21.08;48.13
25510;BME280;13413;52.336;21.200;2023-06-10T04:59:02;100572.70;;;21.08;47.78
25510;BME280;13413;52.336;21.200;2023-06-10T05:01:57;100576.39;;;21.07;47.87
25510;BME280;13413;52.336;21.200;2023-06-10T05:04:50;100578.77;;;21.12;47.96
25510;BME280;13413;52.336;21.200;2023-06-10T05:07:44;100580.29;;;21.19;47.72
25510;BME280;13413;52.336;21.200;2023-06-10T05:10:37;100584.00;;;21.24;47.78
25510;BME280;13413;52.336;21.200;2023-06-10T05:19:12;100586.55;;;21.28;47.67
25510;BME280;13413;52.336;21.200;2023-06-10T05:22:06;100593.77;;;21.25;47.68
25510;BME280;13413;52.336;21.200;2023-06-10T05:25:00;100595.54;;;21.23;47.53
25510;BME280;13413;52.336;21.200;2023-06-10T05:27:53;100596.00;;;21.20;47.57
25510;BME280;13413;52.336;21.200;2023-06-10T05:30:47;100597.06;;;21.17;47.66
25510;BME280;13413;52.336;21.200;2023-06-10T05:33:41;100596.15;;;21.17;47.66
25510;BME280;13413;52.336;21.200;2023-06-10T05:36:35;100599.73;;;21.24;47.67
25510;BME280;13413;52.336;21.200;2023-06-10T05:39:28;100597.47;;;21.26;47.62
25510;BME280;13413;52.336;21.200;2023-06-10T05:42:23;100599.67;;;21.26;47.68
25510;BME280;13413;52.336;21.200;2023-06-10T05:45:17;100605.82;;;21.31;47.72
25510;BME280;13413;52.336;21.200;2023-06-10T05:48:11;100602.11;;;21.34;47.53
25510;BME280;13413;52.336;21.200;2023-06-10T05:51:05;100604.39;;;21.33;47.61
25510;BME280;13413;52.336;21.200;2023-06-10T05:53:59;100599.41;;;21.34;47.73
25510;BME280;13413;52.336;21.200;2023-06-10T05:56:52;100604.22;;;21.48;47.81
25510;BME280;13413;52.336;21.200;2023-06-10T05:59:46;100604.76;;;21.59;47.73
25510;BME280;13413;52.336;21.200;2023-06-10T06:02:41;100604.77;;;21.66;47.44
25510;BME280;13413;52.336;21.200;2023-06-10T06:05:35;100610.65;;;21.74;47.54
25510;BME280;13413;52.336;21.200;2023-06-10T06:08:29;100605.78;;;21.80;47.38
25510;BME280;13413;52.336;21.200;2023-06-10T06:11:23;100602.33;;;21.80;47.30
25510;BME280;13413;52.336;21.200;2023-06-10T06:14:17;100604.42;;;21.76;47.49
25510;BME280;13413;52.336;21.200;2023-06-10T06:17:11;100610.30;;;21.85;47.58
25510;BME280;13413;52.336;21.200;2023-06-10T06:20:07;100609.92;;;21.92;47.36
25510;BME280;13413;52.336;21.200;2023-06-10T06:23:01;100612.55;;;21.94;46.91
25510;BME280;13413;52.336;21.200;2023-06-10T06:25:55;100606.02;;;21.92;47.27
25510;BME280;13413;52.336;21.200;2023-06-10T06:28:52;100610.00;;;22.09;47.42
25510;BME280;13413;52.336;21.200;2023-06-10T06:31:46;100610.09;;;22.25;47.32
25510;BME280;13413;52.336;21.200;2023-06-10T06:34:40;100612.30;;;22.35;46.94
25510;BME280;13413;52.336;21.200;2023-06-10T06:37:35;100612.65;;;22.33;46.74
25510;BME280;13413;52.336;21.200;2023-06-10T06:40:29;100612.17;;;22.37;46.76
25510;BME280;13413;52.336;21.200;2023-06-10T06:43:23;100613.67;;;22.46;46.97
25510;BME280;13413;52.336;21.200;2023-06-10T06:46:17;100612.95;;;22.62;46.76
25510;BME280;13413;52.336;21.200;2023-06-10T06:49:11;100615.36;;;22.74;46.66
25510;BME280;13413;52.336;21.200;2023-06-10T06:52:06;100616.23;;;22.85;46.55
25510;BME280;13413;52.336;21.200;2023-06-10T06:55:00;100616.56;;;22.95;46.35
25510;BME280;13413;52.336;21.200;2023-06-10T06:57:54;100617.76;;;22.91;46.11
25510;BME280;13413;52.336;21.200;2023-06-10T07:00:48;100621.91;;;22.85;46.12
25510;BME280;13413;52.336;21.200;2023-06-10T07:03:42;100623.19;;;22.84;46.42
25510;BME280;13413;52.336;21.200;2023-06-10T07:06:36;100624.38;;;22.89;46.35
25510;BME280;13413;52.336;21.200;2023-06-10T07:09:30;100625.40;;;22.92;46.40
25510;BME280;13413;52.336;21.200;2023-06-10T07:12:24;100626.69;;;22.95;46.37
25510;BME280;13413;52.336;21.200;2023-06-10T07:15:18;100621.98;;;23.02;46.28
25510;BME280;13413;52.336;21.200;2023-06-10T07:18:12;100622.64;;;23.16;46.28
25510;BME280;13413;52.336;21.200;2023-06-10T07:21:06;100621.39;;;23.29;45.98
25510;BME280;13413;52.336;21.200;2023-06-10T07:24:00;100617.95;;;23.36;45.80
25510;BME280;13413;52.336;21.200;2023-06-10T07:26:54;100618.33;;;23.47;46.03
25510;BME280;13413;52.336;21.200;2023-06-10T07:29:46;100616.66;;;23.58;45.70
25510;BME280;13413;52.336;21.200;2023-06-10T07:43:03;100628.02;;;23.88;45.12
25510;BME280;13413;52.336;21.200;2023-06-10T07:45:57;100634.21;;;23.94;44.92
25510;BME280;13413;52.336;21.200;2023-06-10T07:48:51;100633.02;;;23.99;44.86
25510;BME280;13413;52.336;21.200;2023-06-10T07:51:45;100636.58;;;24.03;44.83
25510;BME280;13413;52.336;21.200;2023-06-10T07:54:39;100636.73;;;24.09;44.95
25510;BME280;13413;52.336;21.200;2023-06-10T07:57:33;100640.09;;;24.18;44.80
25510;BME280;13413;52.336;21.200;2023-06-10T08:00:27;100643.95;;;24.21;44.69
25510;BME280;13413;52.336;21.200;2023-06-10T08:03:21;100648.25;;;24.28;44.60
25510;BME280;13413;52.336;21.200;2023-06-10T08:06:16;100650.89;;;24.37;44.37
25510;BME280;13413;52.336;21.200;2023-06-10T08:09:08;100646.80;;;24.43;44.22
25510;BME280;13413;52.336;21.200;2023-06-10T08:12:02;100646.31;;;24.50;44.03
25510;BME280;13413;52.336;21.200;2023-06-10T08:14:56;100650.19;;;24.54;44.03
25510;BME280;13413;52.336;21.200;2023-06-10T08:17:50;100647.86;;;24.61;43.70
25510;BME280;13413;52.336;21.200;2023-06-10T08:20:44;100647.13;;;24.65;43.88
25510;BME280;13413;52.336;21.200;2023-06-10T08:23:38;100649.50;;;24.78;43.76
25510;BME280;13413;52.336;21.200;2023-06-10T08:26:32;100651.39;;;24.91;43.49
25510;BME280;13413;52.336;21.200;2023-06-10T08:29:26;100654.60;;;25.02;43.36
25510;BME280;13413;52.336;21.200;2023-06-10T08:32:20;100647.80;;;25.10;43.14
25510;BME280;13413;52.336;21.200;2023-06-10T08:35:14;100649.06;;;25.21;42.96
25510;BME280;13413;52.336;21.200;2023-06-10T08:38:08;100653.89;;;25.35;42.67
25510;BME280;13413;52.336;21.200;2023-06-10T08:41:02;100651.48;;;25.44;42.60
25510;BME280;13413;52.336;21.200;2023-06-10T08:44:07;100654.09;;;25.47;42.21
25510;BME280;13413;52.336;21.200;2023-06-10T08:47:01;100656.33;;;25.45;42.06
25510;BME280;13413;52.336;21.200;2023-06-10T08:50:03;100658.91;;;25.42;41.92
25510;BME280;13413;52.336;21.200;2023-06-10T08:52:59;100659.78;;;25.43;41.59
25510;BME280;13413;52.336;21.200;2023-06-10T08:55:54;100662.33;;;25.51;41.58
25510;BME280;13413;52.336;21.200;2023-06-10T08:58:52;100668.64;;;25.66;41.31
25510;BME280;13413;52.336;21.200;2023-06-10T09:01:47;100663.08;;;25.77;41.18
25510;BME280;13413;52.336;21.200;2023-06-10T09:04:42;100666.10;;;25.97;40.67
25510;BME280;13413;52.336;21.200;2023-06-10T09:07:37;100668.38;;;26.12;40.69
25510;BME280;13413;52.336;21.200;2023-06-10T09:10:32;100668.63;;;26.31;39.84
25510;BME280;13413;52.336;21.200;2023-06-10T09:13:26;100673.79;;;26.36;39.75
25510;BME280;13413;52.336;21.200;2023-06-10T09:16:20;100670.58;;;26.46;39.50
25510;BME280;13413;52.336;21.200;2023-06-10T09:19:15;100668.84;;;26.62;39.73
25510;BME280;13413;52.336;21.200;2023-06-10T09:22:10;100664.63;;;26.71;38.91
25510;BME280;13413;52.336;21.200;2023-06-10T09:25:05;100668.91;;;26.78;38.57
25510;BME280;13413;52.336;21.200;2023-06-10T09:28:00;100666.48;;;26.93;37.96
25510;BME280;13413;52.336;21.200;2023-06-10T09:31:05;100672.82;;;27.03;37.06
25510;BME280;13413;52.336;21.200;2023-06-10T09:34:07;100675.70;;;27.08;36.96
25510;BME280;13413;52.336;21.200;2023-06-10T09:37:02;100677.61;;;27.16;36.66
25510;BME280;13413;52.336;21.200;2023-06-10T09:40:04;100684.25;;;27.22;36.13
25510;BME280;13413;52.336;21.200;2023-06-10T09:43:00;100681.36;;;27.24;36.23
25510;BME280;13413;52.336;21.200;2023-06-10T09:45:57;100686.33;;;27.35;36.25
25510;BME280;13413;52.336;21.200;2023-06-10T09:48:51;100681.86;;;27.50;35.76
25510;BME280;13413;52.336;21.200;2023-06-10T09:51:52;100685.92;;;27.62;35.62
25510;BME280;13413;52.336;21.200;2023-06-10T09:54:45;100682.16;;;27.72;34.80
25510;BME280;13413;52.336;21.200;2023-06-10T10:03:11;100667.84;;;28.16;34.04
25510;BME280;13413;52.336;21.200;2023-06-10T10:06:16;100668.15;;;28.49;33.30
25510;BME280;13413;52.336;21.200;2023-06-10T10:09:08;100666.40;;;28.58;32.56
25510;BME280;13413;52.336;21.200;2023-06-10T10:12:03;100667.89;;;28.48;32.42
25510;BME280;13413;52.336;21.200;2023-06-10T10:15:00;100664.17;;;28.48;32.47
25510;BME280;13413;52.336;21.200;2023-06-10T10:18:00;100660.83;;;28.62;32.34
25510;BME280;13413;52.336;21.200;2023-06-10T10:21:03;100658.31;;;28.76;31.77
25510;BME280;13413;52.336;21.200;2023-06-10T10:24:04;100656.05;;;28.85;32.21
25510;BME280;13413;52.336;21.200;2023-06-10T10:27:01;100651.67;;;29.14;31.88
25510;BME280;13413;52.336;21.200;2023-06-10T10:29:59;100649.35;;;29.44;31.89
25510;BME280;13413;52.336;21.200;2023-06-10T10:33:00;100652.42;;;29.68;31.27
25510;BME280;13413;52.336;21.200;2023-06-10T10:35:57;100648.20;;;29.72;31.42
25510;BME280;13413;52.336;21.200;2023-06-10T10:38:51;100652.09;;;29.80;31.13
25510;BME280;13413;52.336;21.200;2023-06-10T10:41:45;100648.17;;;29.98;31.01
25510;BME280;13413;52.336;21.200;2023-06-10T10:44:41;100649.39;;;30.08;30.70
25510;BME280;13413;52.336;21.200;2023-06-10T10:47:37;100656.06;;;29.95;30.72
25510;BME280;13413;52.336;21.200;2023-06-10T10:53:42;100648.70;;;29.76;31.48
25510;BME280;13413;52.336;21.200;2023-06-10T10:56:36;100651.23;;;29.91;30.96
25510;BME280;13413;52.336;21.200;2023-06-10T10:59:44;100648.95;;;30.02;30.29
25510;BME280;13413;52.336;21.200;2023-06-10T11:02:42;100644.05;;;30.27;30.19
25510;BME280;13413;52.336;21.200;2023-06-10T11:05:41;100646.83;;;30.45;29.95
25510;BME280;13413;52.336;21.200;2023-06-10T11:08:50;100642.56;;;30.48;29.72
25510;BME280;13413;52.336;21.200;2023-06-10T11:11:51;100637.98;;;30.35;29.73
25510;BME280;13413;52.336;21.200;2023-06-10T11:14:55;100637.67;;;30.46;30.00
25510;BME280;13413;52.336;21.200;2023-06-10T11:18:10;100636.09;;;30.64;29.80
25510;BME280;13413;52.336;21.200;2023-06-10T11:21:05;100636.35;;;30.65;29.86
25510;BME280;13413;52.336;21.200;2023-06-10T11:24:00;100639.27;;;30.64;30.20
25510;BME280;13413;52.336;21.200;2023-06-10T11:27:23;100636.63;;;30.73;30.60
25510;BME280;13413;52.336;21.200;2023-06-10T11:30:22;100639.73;;;30.83;30.51
25510;BME280;13413;52.336;21.200;2023-06-10T11:33:19;100638.73;;;30.84;30.35
25510;BME280;13413;52.336;21.200;2023-06-10T11:36:14;100633.98;;;30.83;30.42
25510;BME280;13413;52.336;21.200;2023-06-10T11:39:08;100637.21;;;30.80;30.51
25510;BME280;13413;52.336;21.200;2023-06-10T11:42:02;100635.49;;;30.64;30.87
25510;BME280;13413;52.336;21.200;2023-06-10T11:44:55;100629.73;;;30.67;31.13
25510;BME280;13413;52.336;21.200;2023-06-10T11:47:59;100631.36;;;30.65;31.12
25510;BME280;13413;52.336;21.200;2023-06-10T11:50:54;100629.33;;;30.65;31.38
25510;BME280;13413;52.336;21.200;2023-06-10T11:53:48;100628.26;;;30.82;31.35
25510;BME280;13413;52.336;21.200;2023-06-10T11:56:41;100631.83;;;30.57;31.62
25510;BME280;13413;52.336;21.200;2023-06-10T11:59:35;100629.13;;;30.15;31.82
25510;BME280;13413;52.336;21.200;2023-06-10T12:02:29;100628.90;;;29.88;31.86
25510;BME280;13413;52.336;21.200;2023-06-10T12:05:24;100626.51;;;29.82;31.93
25510;BME280;13413;52.336;21.200;2023-06-10T12:08:17;100620.95;;;29.97;32.15
25510;BME280;13413;52.336;21.200;2023-06-10T12:11:11;100620.95;;;30.17;32.06
25510;BME280;13413;52.336;21.200;2023-06-10T12:14:04;100620.06;;;30.18;32.18
25510;BME280;13413;52.336;21.200;2023-06-10T12:22:43;100621.42;;;29.98;33.01
25510;BME280;13413;52.336;21.200;2023-06-10T12:25:35;100614.90;;;29.89;33.02
25510;BME280;13413;52.336;21.200;2023-06-10T12:28:27;100613.85;;;29.81;33.19
25510;BME280;13413;52.336;21.200;2023-06-10T12:31:19;100616.84;;;29.56;33.45
25510;BME280;13413;52.336;21.200;2023-06-10T12:34:11;100615.77;;;29.53;33.67
25510;BME280;13413;52.336;21.200;2023-06-10T12:37:04;100614.98;;;29.34;33.60
25510;BME280;13413;52.336;21.200;2023-06-10T12:39:56;100613.35;;;29.20;33.77
25510;BME280;13413;52.336;21.200;2023-06-10T12:42:51;100606.41;;;29.23;33.75
25510;BME280;13413;52.336;21.200;2023-06-10T12:45:45;100607.20;;;29.32;33.65
25510;BME280;13413;52.336;21.200;2023-06-10T12:48:43;100607.95;;;29.41;33.42
25510;BME280;13413;52.336;21.200;2023-06-10T12:51:40;100603.29;;;29.47;33.34
25510;BME280;13413;52.336;21.200;2023-06-10T12:54:32;100597.80;;;29.53;33.31
25510;BME280;13413;52.336;21.200;2023-06-10T12:57:25;100602.60;;;29.54;33.46
25510;BME280;13413;52.336;21.200;2023-06-10T13:00:23;100601.42;;;29.35;33.74
25510;BME280;13413;52.336;21.200;2023-06-10T13:03:15;100598.83;;;29.14;33.47
25510;BME280;13413;52.336;21.200;2023-06-10T13:06:08;100592.20;;;29.07;33.39
25510;BME280;13413;52.336;21.200;2023-06-10T13:08:59;100596.69;;;29.15;33.48
25510;BME280;13413;52.336;21.200;2023-06-10T13:11:52;100589.96;;;29.23;33.68
25510;BME280;13413;52.336;21.200;2023-06-10T13:14:45;100584.84;;;29.33;33.67
25510;BME280;13413;52.336;21.200;2023-06-10T13:17:37;100582.55;;;29.41;33.01
25510;BME280;13413;52.336;21.200;2023-06-10T13:20:29;100580.63;;;29.49;32.78
25510;BME280;13413;52.336;21.200;2023-06-10T13:23:21;100576.55;;;29.58;33.08
25510;BME280;13413;52.336;21.200;2023-06-10T13:26:13;100575.77;;;29.53;33.16
25510;BME280;13413;52.336;21.200;2023-06-10T13:29:06;100578.90;;;29.27;33.05
25510;BME280;13413;52.336;21.200;2023-06-10T13:31:58;100579.11;;;29.01;33.43
25510;BME280;13413;52.336;21.200;2023-06-10T13:34:50;100579.44;;;28.87;33.82
25510;BME280;13413;52.336;21.200;2023-06-10T13:37:42;100578.89;;;28.79;33.90
25510;BME280;13413;52.336;21.200;2023-06-10T13:40:34;100573.70;;;28.83;33.88
25510;BME280;13413;52.336;21.200;2023-06-10T13:43:27;100575.09;;;28.94;33.67
25510;BME280;13413;52.336;21.200;2023-06-10T13:46:18;100574.50;;;28.98;33.75
25510;BME280;13413;52.336;21.200;2023-06-10T13:49:11;100576.42;;;28.93;33.73
25510;BME280;13413;52.336;21.200;2023-06-10T13:52:03;100585.15;;;28.89;33.61
25510;BME280;13413;52.336;21.200;2023-06-10T13:54:55;100583.50;;;28.91;33.51
25510;BME280;13413;52.336;21.200;2023-06-10T13:57:47;100586.96;;;28.89;33.55
25510;BME280;13413;52.336;21.200;2023-06-10T14:00:39;100586.81;;;28.61;33.77
25510;BME280;13413;52.336;21.200;2023-06-10T14:03:32;100580.12;;;28.42;34.31
25510;BME280;13413;52.336;21.200;2023-06-10T14:06:23;100575.98;;;28.41;34.25
25510;BME280;13413;52.336;21.200;2023-06-10T14:09:16;100572.58;;;28.42;34.54
25510;BME280;13413;52.336;21.200;2023-06-10T14:15:00;100574.64;;;28.34;34.87
25510;BME280;13413;52.336;21.200;2023-06-10T14:17:52;100570.88;;;28.39;35.12
25510;BME280;13413;52.336;21.200;2023-06-10T14:20:44;100571.87;;;28.49;34.54
25510;BME280;13413;52.336;21.200;2023-06-10T14:23:35;100571.12;;;28.47;34.16
25510;BME280;13413;52.336;21.200;2023-06-10T14:26:34;100567.43;;;28.39;34.42
25510;BME280;13413;52.336;21.200;2023-06-10T14:29:26;100569.15;;;28.36;34.61
25510;BME280;13413;52.336;21.200;2023-06-10T14:32:18;100567.38;;;28.39;34.85
25510;BME280;13413;52.336;21.200;2023-06-10T14:35:11;100570.67;;;28.38;35.12
25510;BME280;13413;52.336;21.200;2023-06-10T14:38:23;100569.13;;;28.33;35.32
25510;BME280;13413;52.336;21.200;2023-06-10T14:47:56;100564.47;;;27.82;35.30
25510;BME280;13413;52.336;21.200;2023-06-10T14:50:48;100559.08;;;27.76;35.70
25510;BME280;13413;52.336;21.200;2023-06-10T14:53:41;100560.13;;;27.79;35.98
25510;BME280;13413;52.336;21.200;2023-06-10T14:56:33;100561.20;;;27.82;35.90
25510;BME280;13413;52.336;21.200;2023-06-10T14:59:25;100565.59;;;27.72;35.91
25510;BME280;13413;52.336;21.200;2023-06-10T15:05:23;100570.86;;;27.44;36.22
25510;BME280;13413;52.336;21.200;2023-06-10T15:08:15;100572.02;;;27.39;36.37
25510;BME280;13413;52.336;21.200;2023-06-10T15:11:07;100570.94;;;27.40;36.63
25510;BME280;13413;52.336;21.200;2023-06-10T15:13:59;100563.17;;;27.44;36.69
25510;BME280;13413;52.336;21.200;2023-06-10T15:16:51;100568.52;;;27.47;36.76
25510;BME280;13413;52.336;21.200;2023-06-10T15:19:43;100574.42;;;27.53;36.69
25510;BME280;13413;52.336;21.200;2023-06-10T15:22:35;100580.08;;;27.50;36.55
25510;BME280;13413;52.336;21.200;2023-06-10T15:25:27;100581.90;;;27.39;36.45
25510;BME280;13413;52.336;21.200;2023-06-10T15:28:19;100581.30;;;27.30;36.72
25510;BME280;13413;52.336;21.200;2023-06-10T15:31:11;100591.15;;;27.19;37.03
25510;BME280;13413;52.336;21.200;2023-06-10T15:34:04;100589.05;;;27.05;37.48
25510;BME280;13413;52.336;21.200;2023-06-10T15:36:56;100584.52;;;27.04;37.61
25510;BME280;13413;52.336;21.200;2023-06-10T15:39:48;100588.25;;;27.10;37.71
25510;BME280;13413;52.336;21.200;2023-06-10T15:42:40;100592.91;;;27.15;37.65
25510;BME280;13413;52.336;21.200;2023-06-10T15:45:32;100595.48;;;27.21;37.61
25510;BME280;13413;52.336;21.200;2023-06-10T15:51:16;100591.77;;;27.35;37.36
25510;BME280;13413;52.336;21.200;2023-06-10T15:54:08;100595.58;;;27.30;37.27
25510;BME280;13413;52.336;21.200;2023-06-10T15:57:00;100597.29;;;27.25;37.14
25510;BME280;13413;52.336;21.200;2023-06-10T15:59:53;100597.95;;;27.22;37.45
25510;BME280;13413;52.336;21.200;2023-06-10T16:02:45;100597.58;;;27.20;37.52
25510;BME280;13413;52.336;21.200;2023-06-10T16:05:37;100603.30;;;27.20;37.04